EYSA/SQQ METAR and TAF weather

Enter ICAO airport designator
Station Type Date Time Source
EYSA METAR 2019/04/19 22:20 UTC NOAA

EYSA 192220Z AUTO 34007KT 9999NDV NSC 06/00 Q1031


Station Type Date Time Source
EYSA Decoded METAR 2019/04/19 22:20 UTC NOAA

Siauliai Intl./Mil., Lithuania (EYSA) 55-53-38N 023-23-42E
Apr 19, 2019 - 06:20 PM EDT / 2019.04.19 2220 UTC
Wind: from the NNW (340 degrees) at 8 MPH (7 KT):0
Temperature: 42 F (6 C)
Dew Point: 32 F (0 C)
Relative Humidity: 65%
Pressure (altimeter): 30.45 in. Hg (1031 hPa)
ob: EYSA 192220Z AUTO 34007KT 9999NDV NSC 06/00 Q1031
cycle: 22

Station Type Date Time Source
EYSA TAF 2019/01/10 12:09 UTC NOAA

TAF TAF EYSA 101105Z 1012/1024 VRB04KT 5000 BR NSC
TEMPO 1012/1019 SCT010
BECMG 1019/1021 BKN005

Example: see airport list